Time;durP1;ratioP1;P1;durP2;ratioP2;P2;SDS_P1;SDS_P2;PMS_P1;PMS_P2;Temp;Humidity;BMP_temperature;BMP_pressure;BME280_temperature;BME280_humidity;BME280_pressure;Samples;Min_cycle;Max_cycle;Signal;HPM_P1;HPM_P2
2021/11/09 00:01:10;;;;;;;15.32;12.20;;;;;;;3.52;84.87;99592.47;5085292;27;103225;-63
2021/11/09 00:03:44;;;;;;;14.35;10.65;;;;;;;3.70;85.54;99597.16;5066348;27;102879;-63
2021/11/09 00:06:20;;;;;;;9.85;8.48;;;;;;;4.31;84.25;99595.19;5063392;27;103583;-63
2021/11/09 00:08:55;;;;;;;11.23;8.82;;;;;;;4.53;82.95;99581.34;5082875;27;103736;-63
2021/11/09 00:11:25;;;;;;;12.60;9.25;;;;;;;4.62;82.01;99585.41;5083750;27;103203;-63
2021/11/09 00:13:54;;;;;;;11.85;9.57;;;;;;;4.64;81.22;99583.59;5085419;27;102665;-63
2021/11/09 00:16:22;;;;;;;16.33;11.60;;;;;;;3.58;83.66;99594.91;5084816;27;102629;-63
2021/11/09 00:18:50;;;;;;;15.55;13.02;;;;;;;3.20;88.45;99597.78;5084703;27;103327;-62
2021/11/09 00:21:20;;;;;;;17.95;13.30;;;;;;;3.14;88.02;99600.56;5083728;27;103218;-63
2021/11/09 00:23:50;;;;;;;14.18;11.32;;;;;;;3.39;87.73;99596.34;5065506;27;102867;-63
2021/11/09 00:26:18;;;;;;;16.67;11.57;;;;;;;3.49;86.09;99603.00;5084822;27;102709;-63
2021/11/09 00:28:46;;;;;;;14.45;10.32;;;;;;;3.53;86.82;99596.81;5084134;27;103173;-63
2021/11/09 00:31:15;;;;;;;9.27;8.13;;;;;;;4.07;85.10;99602.91;5084409;27;102964;-63
2021/11/09 00:33:43;;;;;;;12.93;10.17;;;;;;;3.67;83.78;99604.22;5084108;27;102861;-63
2021/11/09 00:36:12;;;;;;;10.57;7.78;;;;;;;4.11;83.87;99603.69;5082743;27;102598;-63
2021/11/09 00:38:40;;;;;;;8.40;7.53;;;;;;;4.36;82.74;99608.97;5084356;27;103295;-63
2021/11/09 00:41:09;;;;;;;14.27;11.43;;;;;;;3.18;83.99;99610.00;5082512;27;104074;-63
2021/11/09 00:43:38;;;;;;;13.48;10.50;;;;;;;3.70;84.39;99605.00;5084755;27;103290;-63
2021/11/09 00:46:06;;;;;;;12.87;9.90;;;;;;;4.06;83.07;99611.69;5083071;27;102929;-63
2021/11/09 00:48:34;;;;;;;13.98;10.75;;;;;;;3.96;82.29;99610.25;5083835;27;103397;-63
2021/11/09 00:51:03;;;;;;;15.07;10.70;;;;;;;3.53;81.88;99616.84;5083603;27;103302;-63
2021/11/09 00:53:31;;;;;;;15.15;11.27;;;;;;;3.34;82.51;99624.38;5065641;27;102725;-63
2021/11/09 00:56:01;;;;;;;12.13;9.82;;;;;;;3.52;83.94;99623.81;5084288;27;104384;-63
2021/11/09 00:58:30;;;;;;;12.43;9.73;;;;;;;3.86;83.41;99624.53;5083428;27;103836;-63
2021/11/09 01:00:59;;;;;;;11.45;10.00;;;;;;;3.58;83.40;99626.25;5083883;27;103201;-63
2021/11/09 01:03:27;;;;;;;10.27;8.75;;;;;;;3.93;83.28;99626.03;5065267;27;102810;-64
2021/11/09 01:05:56;;;;;;;16.30;12.45;;;;;;;2.98;85.40;99641.88;5084634;27;102603;-63
2021/11/09 01:08:26;;;;;;;9.80;8.80;;;;;;;3.72;85.69;99626.69;5064766;27;102953;-63
2021/11/09 01:10:55;;;;;;;11.70;10.00;;;;;;;3.91;84.63;99625.22;5083814;27;104687;-64
2021/11/09 01:13:28;;;;;;;9.57;7.82;;;;;;;4.25;83.59;99622.41;5084067;27;102990;-63
2021/11/09 01:15:58;;;;;;;11.57;9.38;;;;;;;4.28;82.76;99629.28;5066683;27;102715;-63
2021/11/09 01:18:31;;;;;;;9.80;8.75;;;;;;;4.17;83.24;99626.16;5065098;27;104975;-63
2021/11/09 01:21:00;;;;;;;16.52;11.85;;;;;;;3.82;83.77;99617.66;5083622;27;103308;-63
2021/11/09 01:23:28;;;;;;;12.03;9.90;;;;;;;4.02;84.61;99620.53;5065070;27;102934;-63
2021/11/09 01:25:57;;;;;;;14.40;11.00;;;;;;;3.95;85.16;99618.16;5082447;27;103582;-63
2021/11/09 01:28:26;;;;;;;11.88;9.85;;;;;;;4.02;85.01;99630.97;5064078;27;102965;-63
2021/11/09 01:30:54;;;;;;;13.57;9.87;;;;;;;4.02;86.06;99625.75;5083696;27;103236;-63
2021/11/09 01:33:24;;;;;;;13.63;9.93;;;;;;;3.92;85.74;99621.72;5084035;27;103032;-62
2021/11/09 01:35:52;;;;;;;11.75;9.23;;;;;;;3.94;87.47;99622.53;5081067;27;102611;-62
2021/11/09 01:38:21;;;;;;;11.97;9.10;;;;;;;4.12;85.28;99625.47;5083602;27;103612;-62
2021/11/09 01:40:52;;;;;;;13.32;9.40;;;;;;;3.73;88.07;99617.97;5062541;27;103582;-62
2021/11/09 01:43:25;;;;;;;11.73;9.52;;;;;;;4.01;86.11;99618.81;5084201;27;102721;-63
2021/11/09 01:45:55;;;;;;;13.00;9.75;;;;;;;3.98;85.86;99611.06;5065210;27;102633;-62
2021/11/09 01:48:25;;;;;;;11.20;8.63;;;;;;;4.23;85.39;99612.91;5082212;27;103337;-62
2021/11/09 01:50:57;;;;;;;12.40;8.02;;;;;;;4.06;85.09;99601.22;5083676;27;103488;-63
2021/11/09 01:53:28;;;;;;;11.27;8.13;;;;;;;4.01;85.92;99603.09;5083123;27;102875;-63
2021/11/09 01:55:58;;;;;;;7.87;6.80;;;;;;;4.41;85.26;99607.06;5064962;27;102714;-63
2021/11/09 01:58:26;;;;;;;8.17;6.93;;;;;;;4.45;85.40;99603.44;5084812;27;103258;-63
2021/11/09 02:00:57;;;;;;;9.95;7.20;;;;;;;4.38;84.80;99596.72;5060265;27;104168;-63
2021/11/09 02:03:28;;;;;;;8.27;6.87;;;;;;;4.22;86.01;99606.81;5086919;27;103164;-63
2021/11/09 02:05:56;;;;;;;9.77;6.85;;;;;;;4.55;84.46;99607.44;5084183;27;102604;-63
2021/11/09 02:08:28;;;;;;;9.82;7.72;;;;;;;4.17;84.78;99613.09;5086707;27;103068;-63
2021/11/09 02:10:57;;;;;;;12.63;8.40;;;;;;;4.26;85.88;99618.03;5083887;27;103382;-62
2021/11/09 02:13:27;;;;;;;6.50;5.80;;;;;;;4.62;85.75;99615.06;5087222;27;102633;-63
2021/11/09 02:15:55;;;;;;;10.38;7.95;;;;;;;4.32;85.00;99617.84;5087818;27;102623;-63
2021/11/09 02:18:24;;;;;;;8.90;6.88;;;;;;;4.36;86.57;99616.81;5084506;27;103850;-63
2021/11/09 02:20:56;;;;;;;9.82;6.50;;;;;;;4.71;84.75;99621.75;5080937;27;103198;-63
2021/11/09 02:23:24;;;;;;;10.90;7.60;;;;;;;4.36;85.76;99622.06;5083140;27;102561;-62
2021/11/09 02:25:52;;;;;;;12.88;8.30;;;;;;;3.84;88.45;99621.09;5085267;27;102830;-62
2021/11/09 02:28:23;;;;;;;7.45;6.65;;;;;;;4.08;89.81;99620.34;5086447;27;103222;-62
2021/11/09 02:30:52;;;;;;;8.82;6.93;;;;;;;4.57;86.41;99623.97;5085940;27;103613;-62
2021/11/09 02:33:20;;;;;;;11.45;7.93;;;;;;;4.25;86.89;99624.16;5086885;27;102558;-62
2021/11/09 02:35:49;;;;;;;7.85;5.90;;;;;;;4.64;86.34;99625.47;5066386;27;102966;-62
2021/11/09 02:38:18;;;;;;;8.40;7.10;;;;;;;4.57;86.49;99631.81;5068049;27;103037;-62
2021/11/09 02:40:48;;;;;;;9.03;6.30;;;;;;;4.92;85.21;99635.84;5066583;27;103300;-63
2021/11/09 02:43:18;;;;;;;10.57;8.30;;;;;;;4.59;85.39;99632.63;5087105;27;103005;-62
2021/11/09 02:45:56;;;;;;;8.43;7.00;;;;;;;4.79;86.36;99639.81;5085776;27;102580;-63
2021/11/09 02:48:28;;;;;;;8.15;6.38;;;;;;;5.12;84.70;99634.25;5085098;27;103217;-62
2021/11/09 02:51:00;;;;;;;7.15;5.95;;;;;;;5.24;84.30;99632.97;5085737;27;103201;-63
2021/11/09 02:53:35;;;;;;;10.13;7.40;;;;;;;5.21;83.76;99626.06;5067670;27;102737;-63
2021/11/09 02:56:08;;;;;;;8.20;6.40;;;;;;;5.37;83.28;99622.88;5085106;27;103782;-62
2021/11/09 02:58:46;;;;;;;12.60;9.23;;;;;;;4.50;84.03;99633.78;5085722;27;104201;-63
2021/11/09 03:01:22;;;;;;;10.83;8.20;;;;;;;4.13;89.88;99630.63;5061457;27;103190;-62
2021/11/09 03:03:56;;;;;;;8.82;7.00;;;;;;;4.78;87.75;99625.84;5085655;27;102633;-63
2021/11/09 03:06:29;;;;;;;14.55;9.50;;;;;;;3.59;89.79;99630.59;5084491;27;104050;-63
2021/11/09 03:09:05;;;;;;;10.63;8.00;;;;;;;4.43;90.03;99631.44;5066703;27;103210;-63
2021/11/09 03:11:34;;;;;;;9.47;7.83;;;;;;;4.69;87.03;99623.53;5083437;27;104850;-62
2021/11/09 03:14:02;;;;;;;8.03;6.50;;;;;;;5.01;86.23;99615.44;5084614;27;102901;-61
2021/11/09 03:16:34;;;;;;;8.45;7.22;;;;;;;4.84;86.45;99620.41;5084944;27;102724;-62
2021/11/09 03:19:12;;;;;;;8.13;6.80;;;;;;;4.93;85.52;99620.09;5083289;27;103231;-62
2021/11/09 03:44:19;;;;;;;14.45;9.80;;;;;;;3.74;88.68;99624.03;5083250;27;103200;-62
2021/11/09 03:46:50;;;;;;;6.30;5.70;;;;;;;4.55;87.97;99624.00;5065236;27;102840;-62
2021/11/09 03:49:20;;;;;;;8.30;7.05;;;;;;;4.79;85.83;99619.72;5084128;27;102709;-62
2021/11/09 03:51:48;;;;;;;7.65;6.43;;;;;;;4.95;84.72;99615.66;5066504;27;103236;-62
2021/11/09 03:54:18;;;;;;;15.07;10.27;;;;;;;3.44;87.22;99623.19;5084777;27;103418;-62
2021/11/09 03:56:56;;;;;;;11.07;8.70;;;;;;;3.83;89.77;99618.53;5084118;27;102847;-63
2021/11/09 03:59:32;;;;;;;9.40;8.40;;;;;;;4.01;88.12;99625.81;5085391;27;102728;-62
2021/11/09 04:02:06;;;;;;;9.88;8.68;;;;;;;4.03;87.29;99627.47;5080607;27;103221;-63
2021/11/09 04:04:42;;;;;;;17.30;12.02;;;;;;;3.07;90.77;99627.72;5084817;27;103444;-62
2021/11/09 04:07:14;;;;;;;11.27;9.60;;;;;;;3.80;90.13;99627.31;5083491;27;102756;-62
2021/11/09 04:10:00;;;;;;;8.00;7.18;;;;;;;4.31;88.24;99621.34;5084735;27;102570;-62
2021/11/09 04:12:43;;;;;;;16.77;11.40;;;;;;;3.01;90.89;99626.13;5064448;27;103734;-62
2021/11/09 04:15:28;;;;;;;13.80;10.50;;;;;;;3.18;91.04;99631.75;5083689;27;103202;-63
2021/11/09 04:18:10;;;;;;;14.32;10.23;;;;;;;3.41;89.54;99633.72;5084830;27;102929;-63
2021/11/09 04:20:47;;;;;;;15.77;11.67;;;;;;;3.15;89.68;99644.91;5072577;27;102649;-63
2021/11/09 04:26:29;;;;;;;10.10;8.80;;;;;;;3.45;91.49;99630.97;5072058;27;103051;-63
2021/11/09 04:29:09;;;;;;;13.82;10.77;;;;;;;3.22;88.30;99632.53;5062251;27;102831;-63
2021/11/09 04:51:47;;;;;;;11.57;9.18;;;;;;;3.56;88.30;99625.44;5082984;27;103093;-63
2021/11/09 05:02:46;;;;;;;14.45;11.77;;;;;;;3.22;84.74;99625.56;5029384;27;102639;-62
2021/11/09 05:08:24;;;;;;;16.20;12.65;;;;;;;2.91;88.77;99641.22;5082228;27;103196;-62
2021/11/09 05:10:54;;;;;;;11.95;10.70;;;;;;;3.30;88.35;99635.78;5080859;27;103172;-62
2021/11/09 05:13:23;;;;;;;14.70;11.40;;;;;;;3.42;86.57;99638.88;5081470;27;102582;-62
2021/11/09 05:15:51;;;;;;;19.40;13.85;;;;;;;2.89;87.82;99639.56;5083749;27;102807;-62
2021/11/09 05:18:22;;;;;;;14.40;10.15;;;;;;;3.35;88.20;99629.53;5083220;27;103306;-62
2021/11/09 05:20:50;;;;;;;10.35;9.10;;;;;;;3.47;87.27;99641.38;5082754;27;103018;-62
2021/11/09 05:23:19;;;;;;;11.60;8.60;;;;;;;3.70;86.23;99644.19;5083713;27;102532;-62
2021/11/09 05:25:49;;;;;;;10.68;8.73;;;;;;;3.78;84.50;99636.97;5084090;27;102897;-62
2021/11/09 05:28:18;;;;;;;8.97;7.70;;;;;;;3.80;83.72;99640.38;5063144;27;103230;-62
2021/11/09 05:30:48;;;;;;;10.02;8.80;;;;;;;3.79;82.97;99633.44;5083557;27;103172;-62
2021/11/09 05:33:18;;;;;;;10.30;9.20;;;;;;;3.86;82.18;99637.59;5085127;27;102602;-62
2021/11/09 05:35:49;;;;;;;8.48;7.53;;;;;;;3.89;81.78;99636.63;5085918;27;102670;-63
2021/11/09 05:38:25;;;;;;;9.82;7.90;;;;;;;3.94;81.81;99640.81;5086465;27;103471;-63
2021/11/09 05:40:56;;;;;;;10.90;9.23;;;;;;;3.87;80.91;99641.94;5086375;27;103197;-63
2021/11/09 05:43:28;;;;;;;9.68;8.68;;;;;;;3.80;81.15;99634.31;5086041;27;102612;-63
2021/11/09 05:45:56;;;;;;;9.20;7.90;;;;;;;3.87;81.67;99647.16;5086471;27;103780;-63
2021/11/09 05:48:24;;;;;;;10.43;9.43;;;;;;;3.55;81.80;99644.63;5065874;27;103233;-63
2021/11/09 05:50:53;;;;;;;17.48;11.35;;;;;;;2.72;85.13;99653.00;5067543;27;103506;-63
2021/11/09 05:53:21;;;;;;;13.85;12.00;;;;;;;2.41;87.22;99659.91;5067288;27;102875;-63
2021/11/09 05:55:49;;;;;;;14.80;12.13;;;;;;;2.28;87.84;99658.47;5086789;27;103045;-63
2021/11/09 05:58:20;;;;;;;13.30;11.20;;;;;;;2.62;88.14;99654.16;5086580;27;104438;-63
2021/11/09 06:00:48;;;;;;;9.27;8.37;;;;;;;3.26;86.91;99658.50;5086082;27;103371;-63
2021/11/09 06:03:19;;;;;;;11.13;9.73;;;;;;;3.45;84.94;99669.31;5087308;27;102970;-63
2021/11/09 06:05:47;;;;;;;7.82;7.13;;;;;;;3.57;83.75;99668.94;5085573;27;102735;-63
2021/11/09 06:08:16;;;;;;;8.43;7.53;;;;;;;3.49;82.20;99665.72;5086750;27;103233;-63
2021/11/09 06:10:44;;;;;;;10.75;9.60;;;;;;;3.44;81.52;99667.59;5084762;27;103175;-63
2021/11/09 06:13:13;;;;;;;11.13;8.73;;;;;;;3.32;82.42;99678.38;5067375;27;102813;-62
2021/11/09 06:15:41;;;;;;;8.13;7.32;;;;;;;3.49;82.34;99677.03;5067224;27;102732;-62
2021/11/09 06:18:09;;;;;;;10.63;8.30;;;;;;;3.51;81.84;99674.34;5086164;27;103248;-63
2021/11/09 06:20:38;;;;;;;14.05;10.18;;;;;;;3.37;81.17;99676.50;5086076;27;103418;-62
2021/11/09 06:23:06;;;;;;;11.48;10.23;;;;;;;3.35;81.64;99673.06;5085472;27;102727;-63
2021/11/09 06:25:36;;;;;;;14.35;10.50;;;;;;;3.13;83.39;99677.19;5085665;27;102724;-63
2021/11/09 06:28:06;;;;;;;12.23;10.30;;;;;;;3.29;83.00;99678.47;5064301;27;103260;-62
2021/11/09 06:30:35;;;;;;;8.57;7.78;;;;;;;3.49;82.72;99679.63;5084055;27;103204;-63
2021/11/09 06:33:03;;;;;;;8.75;7.88;;;;;;;3.66;82.31;99673.91;5085800;27;102492;-62
2021/11/09 06:35:31;;;;;;;13.33;10.43;;;;;;;3.47;81.07;99684.06;5084826;27;102851;-62
2021/11/09 06:37:59;;;;;;;8.93;7.80;;;;;;;3.61;81.70;99683.66;5083888;27;104725;-62
2021/11/09 06:40:27;;;;;;;9.67;8.67;;;;;;;3.73;81.05;99691.16;5065203;27;104127;-62
2021/11/09 06:42:57;;;;;;;10.48;9.38;;;;;;;3.75;80.11;99694.56;5066824;27;102639;-62
2021/11/09 06:45:26;;;;;;;12.15;9.48;;;;;;;3.58;80.58;99696.81;5084714;27;103445;-62
2021/11/09 06:47:54;;;;;;;13.48;11.77;;;;;;;2.93;82.53;99712.50;5083948;27;103224;-63
2021/11/09 06:50:23;;;;;;;12.05;10.32;;;;;;;3.50;82.42;99704.00;5064369;27;103188;-62
2021/11/09 06:52:51;;;;;;;11.27;9.90;;;;;;;3.72;81.12;99699.88;5070056;27;103023;-62
2021/11/09 06:55:19;;;;;;;9.30;8.40;;;;;;;4.02;81.18;99700.72;5078857;27;104840;-62
2021/11/09 06:57:48;;;;;;;10.25;8.85;;;;;;;4.26;80.62;99701.75;5078107;27;103333;-62
2021/11/09 07:00:20;;;;;;;11.95;9.27;;;;;;;4.34;80.80;99705.84;5061482;27;103506;-62
2021/11/09 07:02:48;;;;;;;13.00;10.55;;;;;;;4.41;79.06;99706.47;5061111;27;103363;-62
2021/11/09 07:05:18;;;;;;;12.07;9.60;;;;;;;4.13;79.04;99713.50;5061256;27;103336;-62
2021/11/09 07:07:46;;;;;;;16.63;12.50;;;;;;;3.29;83.04;99720.25;5064147;27;103199;-63
2021/11/09 07:10:15;;;;;;;14.45;12.02;;;;;;;3.71;84.06;99718.22;5012314;28;106823;-63
2021/11/09 07:12:44;;;;;;;14.83;12.43;;;;;;;3.80;81.77;99717.94;4999026;28;102856;-63
2021/11/09 07:15:13;;;;;;;12.82;11.10;;;;;;;4.38;81.51;99724.94;4996096;28;103102;-65
2021/11/09 07:17:43;;;;;;;13.48;10.43;;;;;;;4.87;80.70;99726.81;4996708;28;103261;-64
2021/11/09 07:20:14;;;;;;;10.10;9.10;;;;;;;5.31;80.01;99728.75;4977631;28;104850;-64
2021/11/09 07:22:43;;;;;;;11.23;9.88;;;;;;;5.46;77.59;99737.88;5013088;28;102986;-65
2021/11/09 07:25:11;;;;;;;14.03;11.87;;;;;;;4.79;78.88;99748.00;4999352;28;102737;-65
2021/11/09 07:27:41;;;;;;;12.33;11.03;;;;;;;4.99;80.29;99749.97;5001858;28;103921;-65
2021/11/09 07:30:12;;;;;;;10.77;9.67;;;;;;;5.75;77.07;99746.38;5016506;28;103311;-65
2021/11/09 07:32:41;;;;;;;13.13;10.50;;;;;;;5.95;75.51;99752.72;5002273;28;102826;-65
2021/11/09 07:35:11;;;;;;;15.67;10.70;;;;;;;5.23;76.62;99752.63;5003269;28;102991;-65
2021/11/09 07:37:39;;;;;;;12.47;9.03;;;;;;;5.12;78.49;99754.75;5016358;28;103229;-65
2021/11/09 07:40:11;;;;;;;12.10;9.13;;;;;;;5.29;77.46;99756.78;5002114;28;103336;-65
2021/11/09 07:42:47;;;;;;;14.33;9.70;;;;;;;5.10;79.77;99761.81;5003694;28;102700;-64
2021/11/09 07:45:18;;;;;;;14.40;8.63;;;;;;;5.56;80.39;99754.97;5000400;28;102693;-64
2021/11/09 07:47:46;;;;;;;13.97;10.30;;;;;;;5.86;79.48;99746.06;5001436;28;103206;-65
2021/11/09 07:50:15;;;;;;;13.43;9.60;;;;;;;6.15;78.71;99751.03;5002138;28;103235;-65
2021/11/09 07:52:47;;;;;;;14.80;10.70;;;;;;;6.37;78.38;99762.44;4997965;28;102805;-65
2021/11/09 07:55:18;;;;;;;11.93;10.07;;;;;;;6.57;77.92;99753.78;4981289;28;102891;-65
2021/11/09 07:57:49;;;;;;;19.73;11.30;;;;;;;6.63;77.52;99752.69;4996546;28;103381;-65
2021/11/09 08:00:25;;;;;;;14.60;10.87;;;;;;;6.79;76.91;99761.69;4995380;28;103256;-63
2021/11/09 08:03:06;;;;;;;15.57;11.27;;;;;;;6.43;77.93;99765.75;4997538;28;102674;-63
2021/11/09 08:05:39;;;;;;;14.63;11.10;;;;;;;6.52;76.36;99757.50;4987752;28;102712;-63
2021/11/09 08:08:12;;;;;;;12.73;9.67;;;;;;;6.78;76.73;99754.72;4985557;28;102896;-63
2021/11/09 08:10:40;;;;;;;16.63;11.87;;;;;;;6.68;75.96;99754.22;4994791;28;103405;-63
2021/11/09 08:13:09;;;;;;;16.40;11.97;;;;;;;6.55;77.16;99754.75;4986615;28;102931;-63
2021/11/09 08:15:37;;;;;;;17.40;12.13;;;;;;;6.29;77.27;99756.63;4996015;28;102723;-63
2021/11/09 08:18:06;;;;;;;18.00;11.70;;;;;;;6.33;78.47;99758.22;4995803;28;104070;-60
2021/11/09 08:20:55;;;;;;;14.83;11.67;;;;;;;6.66;79.34;99758.69;4997527;28;103240;-60
2021/11/09 08:23:23;;;;;;;18.03;12.90;;;;;;;6.84;78.65;99757.09;4995868;28;103675;-61
2021/11/09 08:25:52;;;;;;;16.93;12.67;;;;;;;7.00;78.16;99752.91;4997113;28;102667;-60
2021/11/09 08:28:21;;;;;;;17.00;11.53;;;;;;;7.37;77.64;99758.34;4984823;28;103210;-61
2021/11/09 08:30:54;;;;;;;16.77;10.87;;;;;;;7.16;77.71;99753.16;5001269;28;103207;-61
2021/11/09 08:33:24;;;;;;;13.60;10.00;;;;;;;7.75;76.42;99753.19;4996429;28;102654;-61
2021/11/09 08:35:53;;;;;;;11.33;8.83;;;;;;;7.97;75.68;99744.25;4988602;28;104119;-61
2021/11/09 08:38:22;;;;;;;13.13;9.93;;;;;;;7.54;76.24;99750.59;4984369;28;104585;-61
2021/11/09 08:40:53;;;;;;;12.57;8.97;;;;;;;7.97;74.38;99748.69;4996256;28;103184;-61
2021/11/09 08:43:25;;;;;;;9.40;7.70;;;;;;;7.96;75.46;99746.97;4987072;28;102768;-61
2021/11/09 08:45:57;;;;;;;12.27;9.10;;;;;;;7.39;76.14;99750.38;4996107;28;102611;-61
2021/11/09 08:48:28;;;;;;;12.03;8.57;;;;;;;7.29;77.77;99746.44;4996274;28;103275;-61
2021/11/09 08:50:56;;;;;;;10.07;7.40;;;;;;;7.70;75.66;99744.63;4996209;28;103158;-59
2021/11/09 08:53:30;;;;;;;8.07;6.83;;;;;;;7.45;76.31;99750.13;4996533;28;102831;-60
2021/11/09 08:56:18;;;;;;;11.13;7.77;;;;;;;7.55;76.30;99736.50;4987019;28;103190;-59
2021/11/09 09:04:23;;;;;;;10.80;6.77;;;;;;;7.77;76.91;99738.19;5002736;28;102637;-61
2021/11/09 09:06:53;;;;;;;9.27;7.77;;;;;;;7.91;74.55;99739.28;4981355;28;103835;-61
2021/11/09 09:09:23;;;;;;;8.33;6.73;;;;;;;7.51;76.14;99737.56;4984221;28;103215;-60
2021/11/09 09:11:55;;;;;;;9.53;7.30;;;;;;;7.84;75.96;99736.97;5011229;27;103251;-60
2021/11/09 09:14:24;;;;;;;13.63;7.03;;;;;;;7.97;75.12;99738.16;5000027;28;102701;-60
2021/11/09 09:16:54;;;;;;;10.77;6.30;;;;;;;8.10;76.17;99739.31;4993732;28;102995;-60
2021/11/09 09:19:26;;;;;;;8.50;5.63;;;;;;;8.29;73.58;99742.81;4991502;28;103352;-60
2021/11/09 09:22:01;;;;;;;8.00;5.30;;;;;;;8.70;72.48;99733.78;4996396;28;103242;-60
2021/11/09 09:24:40;;;;;;;5.43;4.93;;;;;;;8.84;72.83;99737.56;4995649;28;104343;-61
2021/11/09 09:27:28;;;;;;;7.10;5.33;;;;;;;8.72;72.27;99734.59;4996715;28;103725;-60
2021/11/09 09:30:14;;;;;;;13.67;5.83;;;;;;;7.22;77.50;99743.22;4995942;28;103207;-60
2021/11/09 09:57:48;;;;;;;7.30;6.00;;;;;;;8.63;73.99;99735.03;4978442;28;106496;-62
2021/11/09 10:00:17;;;;;;;9.07;5.70;;;;;;;8.37;74.14;99732.78;4994343;28;104111;-61
2021/11/09 10:02:53;;;;;;;9.70;6.03;;;;;;;8.00;73.93;99732.75;4989539;28;103211;-62
2021/11/09 10:05:23;;;;;;;8.43;5.27;;;;;;;8.70;72.92;99731.16;5007551;27;103210;-61
2021/11/09 10:07:55;;;;;;;10.13;5.00;;;;;;;9.37;71.21;99729.59;4981849;28;103061;-61
2021/11/09 10:10:25;;;;;;;7.17;5.20;;;;;;;9.19;72.92;99726.09;4981421;28;103902;-60
2021/11/09 10:13:00;;;;;;;7.87;5.30;;;;;;;8.23;73.45;99722.00;4993455;28;103498;-61
2021/11/09 10:15:32;;;;;;;7.10;5.73;;;;;;;8.61;72.26;99726.34;4993032;28;103194;-60
2021/11/09 10:18:03;;;;;;;9.07;5.73;;;;;;;8.71;71.77;99722.34;4985557;28;103891;-60
2021/11/09 10:20:32;;;;;;;;;;;;;;;9.31;70.98;99722.84;4998033;28;104122;-61
2021/11/09 10:23:01;;;;;;;;;;;;;;;9.51;69.83;99720.06;4999891;28;103208;-60
2021/11/09 10:25:29;;;;;;;;;;;;;;;9.14;71.43;99720.22;4999104;28;103041;-61
2021/11/09 10:28:03;;;;;;;;;;;;;;;10.04;69.19;99713.69;5001144;28;102715;-61
2021/11/09 10:30:33;;;;;;;;;;;;;;;10.31;67.82;99709.56;4996592;28;102874;-61
2021/11/09 10:33:01;;;;;;;;;;;;;;;10.78;66.17;99702.47;4998973;28;103178;-61
2021/11/09 10:35:29;;;;;;;;;;;;;;;10.69;65.41;99697.72;4991851;28;103127;-61
2021/11/09 10:37:58;;;;;;;;;;;;;;;10.80;64.22;99699.75;4992791;28;103190;-61
2021/11/09 10:40:27;;;;;;;;;;;;;;;10.72;64.52;99692.22;4998510;28;104407;-61
2021/11/09 10:42:57;;;;;;;;;;;;;;;10.96;64.62;99696.13;4999517;28;103361;-61
2021/11/09 10:45:27;;;;;;;;;;;;;;;11.05;63.52;99690.31;4996861;28;103140;-61
2021/11/09 10:47:56;;;;;;;;;;;;;;;11.12;62.59;99685.50;4996571;28;102766;-61
2021/11/09 10:50:27;;;;;;;;;;;;;;;11.28;61.61;99691.59;4996625;28;104581;-61
2021/11/09 10:53:06;;;;;;;;;;;;;;;11.45;59.98;99680.00;4983863;28;103310;-61
2021/11/09 10:55:40;;;;;;;;;;;;;;;11.28;59.63;99685.44;5009399;27;102944;-61
2021/11/09 10:58:29;;;;;;;;;;;;;;;11.54;59.44;99668.84;5009239;27;103249;-61
2021/11/09 11:06:23;;;;;;;;;;;;;;;11.43;60.15;99658.06;4992176;28;103172;-63
2021/11/09 11:08:53;;;;;;;;;;;;;;;11.46;57.06;99665.81;4983290;28;102790;-63
2021/11/09 11:11:25;;;;;;;;;;;;;;;10.92;56.94;99665.50;4976947;28;103568;-63
2021/11/09 11:13:53;;;;;;;;;;;;;;;11.86;58.38;99659.81;4986336;28;103107;-63
2021/11/09 11:16:26;;;;;;;;;;;;;;;11.47;56.60;99662.22;4986006;27;103268;-63
2021/11/09 11:18:56;;;;;;;;;;;;;;;11.83;55.76;99657.34;4998248;27;103845;-63
2021/11/09 11:21:26;;;;;;;;;;;;;;;12.26;55.23;99665.22;5007747;27;104414;-64
2021/11/09 11:23:54;;;;;;;;;;;;;;;11.52;57.07;99660.16;4983691;28;104298;-64
2021/11/09 11:26:22;;;;;;;;;;;;;;;12.00;56.21;99654.50;4989909;28;103989;-62
2021/11/09 11:28:51;;;;;;;;;;;;;;;12.64;54.21;99650.34;5005712;27;102996;-62
2021/11/09 11:31:20;;;;;;;;;;;;;;;12.19;55.02;99660.31;4976052;28;102914;-62
2021/11/09 11:33:49;;;;;;;;;;;;;;;11.99;55.33;99646.63;4993095;28;103365;-62
2021/11/09 11:36:17;;;;;;;;;;;;;;;11.94;55.84;99644.28;4995985;28;103176;-62
2021/11/09 11:38:49;;;;;;;;;;;;;;;12.55;54.06;99642.97;4992601;28;102762;-64
2021/11/09 11:41:17;;;;;;;;;;;;;;;12.36;54.71;99639.84;4996650;27;102800;-62
2021/11/09 11:43:58;;;;;;;;;;;;;;;12.38;55.49;99630.81;4992997;28;103200;-62
2021/11/09 11:46:42;;;;;;;;;;;;;;;12.88;53.57;99626.66;4990569;28;103679;-62
2021/11/09 11:49:12;;;;;;;;;;;;;;;12.01;54.35;99620.91;4994805;28;103779;-62
2021/11/09 11:51:42;;;;;;;;;;;;;;;12.09;54.61;99622.13;4991368;27;103937;-62
2021/11/09 11:54:13;;;;;;;;;;;;;;;12.61;53.95;99614.28;4992655;28;104227;-62
2021/11/09 11:56:51;;;;;;;;;;;;;;;12.64;52.37;99608.78;4991528;28;103105;-62
2021/11/09 11:59:33;;;;;;;;;;;;;;;12.83;53.63;99607.56;4992453;28;102734;-62
2021/11/09 12:02:02;;;;;;;;;;;;;;;13.38;52.02;99605.50;4992199;28;103999;-64
2021/11/09 12:04:45;;;;;;;;;;;;;;;11.91;54.20;99594.16;4986030;28;103072;-62
2021/11/09 12:07:16;;;;;;;;;;;;;;;12.62;54.01;99602.72;4994178;28;103339;-62
2021/11/09 12:09:45;;;;;;;;;;;;;;;13.08;52.86;99597.84;4993013;28;102851;-62
2021/11/09 12:12:30;;;;;;;;;;;;;;;12.97;52.28;99600.34;4995568;28;102789;-62
2021/11/09 12:14:59;;;;;;;;;;;;;;;13.15;53.00;99588.53;4997684;28;104185;-62
2021/11/09 12:17:32;;;;;;;;;;;;;;;13.39;51.42;99598.41;4995206;28;103263;-62
2021/11/09 12:20:08;;;;;;;;;;;;;;;13.52;51.81;99585.97;4997071;28;102920;-62
2021/11/09 12:22:42;;;;;;;;;;;;;;;13.45;51.79;99579.38;4998043;28;102816;-62
2021/11/09 12:25:12;;;;;;;6.18;2.50;;;;;;;14.26;51.41;99584.06;4998076;28;103963;-62
2021/11/09 12:28:04;;;;;;;5.43;2.50;;;;;;;14.02;50.74;99588.50;4990077;28;102669;-62
2021/11/09 12:30:50;;;;;;;5.32;2.67;;;;;;;14.20;50.79;99589.84;4998472;28;102772;-62
2021/11/09 12:33:23;;;;;;;5.18;2.78;;;;;;;13.86;49.95;99587.94;4998419;28;102953;-62
2021/11/09 12:36:21;;;;;;;6.15;2.60;;;;;;;14.26;50.37;99594.69;5002630;28;103248;-62
2021/11/09 12:38:53;;;;;;;5.35;2.47;;;;;;;13.62;50.40;99587.00;5003331;28;103228;-62
2021/11/09 12:41:23;;;;;;;4.97;2.50;;;;;;;14.41;49.42;99582.97;5001859;28;102704;-62
2021/11/09 12:43:53;;;;;;;4.15;2.30;;;;;;;14.97;49.04;99576.03;5003888;28;102983;-62
2021/11/09 12:46:26;;;;;;;4.57;2.38;;;;;;;14.12;49.92;99573.59;5000113;28;104762;-62
2021/11/09 12:48:59;;;;;;;3.30;2.10;;;;;;;14.69;48.63;99575.56;5000151;28;103650;-62
2021/11/09 12:51:30;;;;;;;4.57;2.42;;;;;;;14.99;47.94;99562.59;5002869;28;102711;-62
2021/11/09 12:54:04;;;;;;;4.23;2.57;;;;;;;14.86;48.28;99564.50;5000677;28;103733;-62
2021/11/09 12:56:35;;;;;;;3.78;2.35;;;;;;;14.56;47.63;99569.50;5001699;28;104114;-62
2021/11/09 12:59:11;;;;;;;4.30;2.42;;;;;;;14.51;48.83;99573.34;5003287;28;103183;-62
2021/11/09 13:04:29;;;;;;;5.13;2.40;;;;;;;14.24;48.63;99577.16;4996783;28;104290;-63
2021/11/09 13:07:08;;;;;;;5.13;2.50;;;;;;;13.79;50.14;99570.72;4995724;28;103308;-62
2021/11/09 13:09:42;;;;;;;4.75;2.30;;;;;;;14.00;49.45;99563.88;4998354;28;103413;-62
2021/11/09 13:12:13;;;;;;;3.85;2.08;;;;;;;14.30;49.79;99564.28;4995395;28;102690;-62
2021/11/09 13:14:45;;;;;;;5.30;2.55;;;;;;;13.52;48.95;99564.72;4995892;28;104109;-62
2021/11/09 13:17:38;;;;;;;5.30;2.67;;;;;;;12.94;50.91;99557.28;4997257;28;102701;-62
2021/11/09 13:20:17;;;;;;;5.60;2.60;;;;;;;13.24;51.17;99556.06;5008774;27;103940;-62
2021/11/09 13:22:53;;;;;;;4.65;2.40;;;;;;;13.88;50.28;99567.41;4994675;28;102668;-62
2021/11/09 13:25:32;;;;;;;3.77;1.90;;;;;;;13.57;48.91;99566.09;4994970;28;103005;-62
2021/11/09 13:28:03;;;;;;;4.40;2.13;;;;;;;13.60;50.60;99551.75;4996739;28;103103;-67
2021/11/09 13:30:50;;;;;;;5.10;2.30;;;;;;;14.19;49.40;99555.38;4987121;28;103282;-68
2021/11/09 13:33:20;;;;;;;4.68;1.90;;;;;;;14.70;48.38;99548.03;4993528;28;102784;-60